createdAt,value
2023-04-19T00:01:43.491Z,4.32
2023-04-19T00:04:10.581Z,4.15
2023-04-19T00:06:37.803Z,4.13
2023-04-19T00:09:05.286Z,4.20
2023-04-19T00:11:32.226Z,4.93
2023-04-19T00:13:59.160Z,4.60
2023-04-19T00:16:26.373Z,4.53
2023-04-19T00:18:53.356Z,4.72
2023-04-19T00:21:20.372Z,4.82
2023-04-19T00:23:47.847Z,4.38
2023-04-19T00:26:15.806Z,3.97
2023-04-19T00:28:47.709Z,4.00
2023-04-19T00:31:16.163Z,4.25
2023-04-19T00:33:43.090Z,4.10
2023-04-19T00:36:10.851Z,4.45
2023-04-19T00:38:37.808Z,4.50
2023-04-19T00:41:04.798Z,3.88
2023-04-19T00:43:31.721Z,4.00
2023-04-19T00:45:58.977Z,4.22
2023-04-19T00:48:26.211Z,4.32
2023-04-19T00:50:53.184Z,4.05
2023-04-19T00:53:20.214Z,4.28
2023-04-19T00:55:48.519Z,3.97
2023-04-19T00:58:16.010Z,4.18
2023-04-19T01:00:43.705Z,3.78
2023-04-19T01:03:10.859Z,3.70
2023-04-19T01:05:37.985Z,4.05
2023-04-19T01:08:05.066Z,3.80
2023-04-19T01:10:31.980Z,3.72
2023-04-19T01:12:59.380Z,4.40
2023-04-19T01:15:26.777Z,4.18
2023-04-19T01:17:55.952Z,4.25
2023-04-19T01:20:23.234Z,3.90
2023-04-19T01:22:50.316Z,4.22
2023-04-19T01:25:17.365Z,3.92
2023-04-19T01:27:44.450Z,3.97
2023-04-19T01:30:11.989Z,4.00
2023-04-19T01:32:38.973Z,3.90
2023-04-19T01:35:06.679Z,4.13
2023-04-19T01:37:37.102Z,4.18
2023-04-19T01:40:05.885Z,4.30
2023-04-19T01:42:32.940Z,4.00
2023-04-19T01:45:01.028Z,4.25
2023-04-19T01:47:28.106Z,3.88
2023-04-19T01:49:55.290Z,4.38
2023-04-19T01:52:22.256Z,4.18
2023-04-19T01:54:49.242Z,4.20
2023-04-19T01:57:16.527Z,4.20
2023-04-19T01:59:43.654Z,4.22
2023-04-19T02:02:10.830Z,4.15
2023-04-19T02:04:38.756Z,4.15
2023-04-19T02:07:06.471Z,4.30
2023-04-19T02:09:38.972Z,3.63
2023-04-19T02:12:06.466Z,3.92
2023-04-19T02:14:33.471Z,3.80
2023-04-19T02:17:00.538Z,4.65
2023-04-19T02:19:27.502Z,4.05
2023-04-19T02:21:57.526Z,4.68
2023-04-19T02:24:25.175Z,4.03
2023-04-19T02:26:52.224Z,4.35
2023-04-19T02:29:19.214Z,3.67
2023-04-19T02:31:46.509Z,3.25
2023-04-19T02:34:13.773Z,3.67
2023-04-19T02:36:41.024Z,3.38
2023-04-19T02:39:08.383Z,4.00
2023-04-19T02:41:38.951Z,3.88
2023-04-19T02:44:05.977Z,3.58
2023-04-19T02:46:34.751Z,3.83
2023-04-19T02:49:01.889Z,3.75
2023-04-19T02:51:29.466Z,3.85
2023-04-19T02:53:56.648Z,3.75
2023-04-19T02:56:23.917Z,3.70
2023-04-19T02:58:53.168Z,3.65
2023-04-19T03:01:20.228Z,3.25
2023-04-19T03:03:47.319Z,3.65
2023-04-19T03:06:14.944Z,3.85
2023-04-19T03:08:41.954Z,3.58
2023-04-19T03:11:08.997Z,3.80
2023-04-19T03:13:36.469Z,3.67
2023-04-19T03:16:04.138Z,3.75
2023-04-19T03:18:32.391Z,3.83
2023-04-19T03:21:01.372Z,3.85
2023-04-19T03:23:32.512Z,3.78
2023-04-19T03:26:01.238Z,3.83
2023-04-19T03:28:44.639Z,3.72
2023-04-19T03:31:20.205Z,3.38
2023-04-19T03:33:50.538Z,4.10
2023-04-19T03:36:18.923Z,3.85
2023-04-19T03:38:47.164Z,4.20
2023-04-19T03:41:25.770Z,4.05
2023-04-19T03:44:02.415Z,4.60
2023-04-19T03:46:31.954Z,4.13
2023-04-19T03:49:00.108Z,3.85
2023-04-19T03:51:28.202Z,3.88
2023-04-19T03:53:55.122Z,3.83
2023-04-19T03:56:22.172Z,3.45
2023-04-19T03:58:51.700Z,4.28
2023-04-19T04:01:24.114Z,4.15
2023-04-19T04:03:52.356Z,4.40
2023-04-19T04:06:19.607Z,4.47
2023-04-19T04:08:47.253Z,3.95
2023-04-19T04:11:14.373Z,4.07
2023-04-19T04:13:43.074Z,4.07
2023-04-19T04:16:17.875Z,3.85
2023-04-19T04:18:44.998Z,4.10
2023-04-19T04:21:14.860Z,4.05
2023-04-19T04:23:47.118Z,4.22
2023-04-19T04:26:21.884Z,3.95
2023-04-19T04:29:12.452Z,4.28
2023-04-19T04:31:40.692Z,4.47
2023-04-19T04:34:09.300Z,4.78
2023-04-19T04:36:41.722Z,4.05
2023-04-19T04:39:11.843Z,4.32
2023-04-19T04:41:42.032Z,4.25
2023-04-19T04:44:23.062Z,4.10
2023-04-19T04:46:50.579Z,4.80
2023-04-19T04:49:23.602Z,4.10
2023-04-19T04:51:51.209Z,3.97
2023-04-19T04:54:18.415Z,4.55
2023-04-19T04:56:46.875Z,4.57
2023-04-19T04:59:14.032Z,4.72
2023-04-19T05:01:44.337Z,4.22
2023-04-19T05:04:12.024Z,4.40
2023-04-19T05:06:41.060Z,4.38
2023-04-19T05:09:09.638Z,4.15
2023-04-19T05:11:36.841Z,3.92
2023-04-19T05:14:04.504Z,4.32
2023-04-19T05:16:33.652Z,4.97
2023-04-19T05:19:01.168Z,4.20
2023-04-19T05:21:34.479Z,4.65
2023-04-19T05:24:03.493Z,4.30
2023-04-19T05:26:32.093Z,4.28
2023-04-19T05:29:00.099Z,4.30
2023-04-19T05:31:48.444Z,4.18
2023-04-19T05:34:22.640Z,4.78
2023-04-19T05:36:50.359Z,4.35
2023-04-19T05:39:17.491Z,4.55
2023-04-19T05:41:44.467Z,4.28
2023-04-19T05:44:11.406Z,4.15
2023-04-19T05:46:38.536Z,3.72
2023-04-19T05:49:07.560Z,3.80
2023-04-19T05:52:00.506Z,3.85
2023-04-19T05:54:44.358Z,4.13
2023-04-19T05:57:11.683Z,4.03
2023-04-19T05:59:38.658Z,3.70
2023-04-19T06:02:06.268Z,4.15
2023-04-19T06:04:33.437Z,4.00
2023-04-19T06:09:28.508Z,4.65
2023-04-19T06:11:56.718Z,4.20
2023-04-19T06:14:24.495Z,4.63
2023-04-19T06:16:51.604Z,3.90
2023-04-19T06:19:18.759Z,4.35
2023-04-19T06:21:46.117Z,4.30
2023-04-19T06:24:13.363Z,4.18
2023-04-19T06:26:40.517Z,4.38
2023-04-19T06:29:07.524Z,4.65
2023-04-19T06:31:34.494Z,4.50
2023-04-19T06:34:01.522Z,4.22
2023-04-19T06:36:29.072Z,4.32
2023-04-19T06:38:56.077Z,4.80
2023-04-19T06:41:23.111Z,3.97
2023-04-19T06:43:50.429Z,4.32
2023-04-19T06:46:17.458Z,5.55
2023-04-19T06:48:44.437Z,5.18
2023-04-19T06:51:11.425Z,5.43
2023-04-19T06:53:38.417Z,4.93
2023-04-19T06:56:05.967Z,5.50
2023-04-19T06:58:34.963Z,5.00
2023-04-19T07:01:06.187Z,4.75
2023-04-19T07:03:33.674Z,4.90
2023-04-19T07:06:00.846Z,5.07
2023-04-19T07:08:42.316Z,4.93
2023-04-19T07:11:15.548Z,4.25
2023-04-19T07:13:42.468Z,4.93
2023-04-19T07:16:09.573Z,4.43
2023-04-19T07:18:36.527Z,4.47
2023-04-19T07:21:03.590Z,4.85
2023-04-19T07:23:30.858Z,4.82
2023-04-19T07:25:57.859Z,5.00
2023-04-19T07:28:24.832Z,4.80
2023-04-19T07:30:51.776Z,4.47
2023-04-19T07:33:18.766Z,4.30
2023-04-19T07:35:45.994Z,4.72
2023-04-19T07:38:13.246Z,4.25
2023-04-19T07:40:40.265Z,4.32
2023-04-19T07:43:07.226Z,4.22
2023-04-19T07:45:34.144Z,4.20
2023-04-19T07:48:01.218Z,4.53
2023-04-19T07:50:28.419Z,4.25
2023-04-19T07:52:56.621Z,4.38
2023-04-19T07:55:23.595Z,4.60
2023-04-19T07:57:50.619Z,3.90
2023-04-19T08:00:23.899Z,3.97
2023-04-19T08:02:51.224Z,3.75
2023-04-19T08:05:18.586Z,4.00
2023-04-19T08:07:45.898Z,3.88
2023-04-19T08:10:13.556Z,3.42
2023-04-19T08:12:50.463Z,3.67
2023-04-19T08:16:03.682Z,3.78
2023-04-19T08:18:11.145Z,3.90
2023-04-19T08:20:38.194Z,3.90
2023-04-19T08:23:17.704Z,3.45
2023-04-19T08:25:45.507Z,3.78
2023-04-19T08:28:12.613Z,3.80
2023-04-19T08:33:08.284Z,4.13
2023-04-19T08:35:38.716Z,4.30
2023-04-19T08:38:05.627Z,4.40
2023-04-19T08:40:32.731Z,4.95
2023-04-19T08:42:59.970Z,4.00
2023-04-19T08:45:30.792Z,4.20
2023-04-19T08:48:01.378Z,4.20
2023-04-19T08:58:28.854Z,3.92
2023-04-19T09:01:12.775Z,3.42
2023-04-19T09:03:59.466Z,3.50
2023-04-19T09:06:41.629Z,3.00
2023-04-19T09:09:34.859Z,3.67
2023-04-19T09:12:17.790Z,3.35
2023-04-19T09:17:17.377Z,3.40
2023-04-19T09:19:49.640Z,2.97
2023-04-19T09:22:17.096Z,3.33
2023-04-19T09:27:34.164Z,2.70
2023-04-19T09:30:04.124Z,3.25
2023-04-19T09:32:48.168Z,2.88
2023-04-19T09:35:15.469Z,3.17
2023-04-19T09:40:25.764Z,3.42
2023-04-19T09:48:03.281Z,3.50
2023-04-19T09:50:31.840Z,3.17
2023-04-19T09:52:59.925Z,3.42
2023-04-19T09:55:29.033Z,3.30
2023-04-19T09:57:57.243Z,3.35
2023-04-19T10:00:27.020Z,3.45
2023-04-19T10:02:58.396Z,3.03
2023-04-19T10:05:26.395Z,3.08
2023-04-19T10:07:59.554Z,3.35
2023-04-19T10:10:41.287Z,3.25
2023-04-19T10:15:52.755Z,2.58
2023-04-19T10:18:22.887Z,2.72
2023-04-19T10:21:00.881Z,3.08
2023-04-19T10:23:28.954Z,3.53
2023-04-19T10:25:59.558Z,3.75
2023-04-19T10:28:30.744Z,3.75
2023-04-19T10:31:03.850Z,4.30
2023-04-19T10:33:41.072Z,4.00
2023-04-19T10:36:15.023Z,3.60
2023-04-19T10:38:51.418Z,4.38
2023-04-19T10:41:22.698Z,4.00
2023-04-19T10:43:55.633Z,4.30
2023-04-19T10:46:22.896Z,3.70
2023-04-19T10:48:57.769Z,4.85
2023-04-19T10:51:36.363Z,4.50
2023-04-19T10:54:29.981Z,4.93
2023-04-19T10:57:07.534Z,4.13
2023-04-19T10:59:37.137Z,4.72
2023-04-19T11:02:28.173Z,4.57
2023-04-19T11:04:55.432Z,4.55
2023-04-19T11:07:22.440Z,4.85
2023-04-19T11:09:51.729Z,4.82
2023-04-19T11:12:21.178Z,4.47
2023-04-19T11:14:59.787Z,4.75
2023-04-19T11:17:32.028Z,4.32
2023-04-19T11:20:10.772Z,4.88
2023-04-19T11:22:47.308Z,4.63
2023-04-19T11:25:22.092Z,4.65
2023-04-19T11:27:52.982Z,4.75
2023-04-19T11:30:23.070Z,4.85
2023-04-19T11:32:54.290Z,4.97
2023-04-19T11:35:27.072Z,4.70
2023-04-19T11:37:56.248Z,4.50
2023-04-19T11:40:28.137Z,4.90
2023-04-19T11:43:02.116Z,4.88
2023-04-19T11:45:38.247Z,4.45
2023-04-19T11:48:07.254Z,4.72
2023-04-19T11:50:41.808Z,5.57
2023-04-19T11:53:18.335Z,5.05
2023-04-19T11:55:51.229Z,5.05
2023-04-19T11:58:33.442Z,5.07
2023-04-19T12:01:06.983Z,4.38
2023-04-19T12:03:40.187Z,4.90
2023-04-19T12:06:13.707Z,4.65
2023-04-19T12:08:49.667Z,5.20
2023-04-19T12:11:24.544Z,4.38
2023-04-19T12:14:18.365Z,4.80
2023-04-19T12:16:46.029Z,4.45
2023-04-19T12:19:14.065Z,4.28
2023-04-19T12:21:41.631Z,3.55
2023-04-19T12:24:08.741Z,3.78
2023-04-19T12:26:36.474Z,3.75
2023-04-19T12:29:04.140Z,3.92
2023-04-19T12:31:34.889Z,3.70
2023-04-19T12:34:01.929Z,4.00
2023-04-19T12:36:30.250Z,3.70
2023-04-19T12:38:57.243Z,4.35
2023-04-19T12:41:24.164Z,5.13
2023-04-19T12:43:51.105Z,5.35
2023-04-19T12:46:18.085Z,5.88
2023-04-19T12:48:45.050Z,6.32
2023-04-19T12:51:12.026Z,6.07
2023-04-19T12:53:41.281Z,6.28
2023-04-19T12:56:08.229Z,6.32
2023-04-19T12:58:35.807Z,5.65
2023-04-19T13:01:02.837Z,5.72
2023-04-19T13:03:33.128Z,5.38
2023-04-19T13:06:00.874Z,5.68
2023-04-19T13:08:41.407Z,5.75
2023-04-19T13:11:12.632Z,5.53
2023-04-19T13:13:39.568Z,6.28
2023-04-19T13:16:07.875Z,5.50
2023-04-19T13:18:35.277Z,5.70
2023-04-19T13:21:02.226Z,5.13
2023-04-19T13:23:29.171Z,5.53
2023-04-19T13:25:56.146Z,5.47
2023-04-19T13:28:23.086Z,6.00
2023-04-19T13:30:50.092Z,4.40
2023-04-19T13:33:17.138Z,5.28
2023-04-19T13:35:45.000Z,5.05
2023-04-19T13:38:12.039Z,4.90
2023-04-19T13:40:39.000Z,4.57
2023-04-19T13:43:05.928Z,4.82
2023-04-19T13:45:32.833Z,4.53
2023-04-19T13:47:59.843Z,4.45
2023-04-19T13:50:26.889Z,4.07
2023-04-19T13:52:53.880Z,4.38
2023-04-19T13:55:21.215Z,4.15
2023-04-19T13:57:48.201Z,3.80
2023-04-19T14:00:16.378Z,3.75
2023-04-19T14:02:44.930Z,3.65
2023-04-19T14:05:12.028Z,3.42
2023-04-19T14:07:42.067Z,4.05
2023-04-19T14:10:10.575Z,3.53
2023-04-19T14:12:37.514Z,3.38
2023-04-19T14:15:04.906Z,3.30
2023-04-19T14:17:32.043Z,3.60
2023-04-19T14:19:58.990Z,4.43
2023-04-19T14:22:25.984Z,4.18
2023-04-19T14:24:52.978Z,3.85
2023-04-19T14:27:20.246Z,3.53
2023-04-19T14:29:47.222Z,3.67
2023-04-19T14:32:24.868Z,3.88
2023-04-19T14:34:55.097Z,3.40
2023-04-19T14:37:23.629Z,3.70
2023-04-19T14:39:50.758Z,3.92
2023-04-19T14:42:18.825Z,3.53
2023-04-19T14:44:50.506Z,3.30
2023-04-19T14:47:17.448Z,3.30
2023-04-19T14:49:44.375Z,3.15
2023-04-19T14:52:11.464Z,3.35
2023-04-19T14:54:38.424Z,3.15
2023-04-19T14:57:05.674Z,3.00
2023-04-19T14:59:33.641Z,3.40
2023-04-19T15:02:00.643Z,3.22
2023-04-19T15:04:27.884Z,3.08
2023-04-19T15:06:54.994Z,2.72
2023-04-19T15:09:21.962Z,2.47
2023-04-19T15:11:48.877Z,2.70
2023-04-19T15:14:16.109Z,2.35
2023-04-19T15:16:43.263Z,2.20
2023-04-19T15:19:10.323Z,2.33
2023-04-19T15:21:37.316Z,2.72
2023-04-19T15:24:05.783Z,2.42
2023-04-19T15:26:33.086Z,2.03
2023-04-19T15:29:00.113Z,2.22
2023-04-19T15:31:27.226Z,2.17
2023-04-19T15:33:54.430Z,2.17
2023-04-19T15:36:21.346Z,2.00
2023-04-19T15:38:48.283Z,1.95
2023-04-19T15:41:15.411Z,2.10
2023-04-19T15:43:42.334Z,1.80
2023-04-19T15:46:15.245Z,2.28
2023-04-19T15:48:43.917Z,1.77
2023-04-19T15:51:15.180Z,1.77
2023-04-19T15:53:42.301Z,2.15
2023-04-19T15:56:09.777Z,1.98
2023-04-19T15:58:37.316Z,1.85
2023-04-19T16:01:07.295Z,2.10
2023-04-19T16:03:34.265Z,1.63
2023-04-19T16:06:01.433Z,2.00
2023-04-19T16:08:28.364Z,1.80
2023-04-19T16:10:55.407Z,2.05
2023-04-19T16:13:22.351Z,1.63
2023-04-19T16:15:49.300Z,1.75
2023-04-19T16:18:16.463Z,1.95
2023-04-19T16:20:43.413Z,1.95
2023-04-19T16:23:10.451Z,1.77
2023-04-19T16:25:37.622Z,1.83
2023-04-19T16:28:04.602Z,1.70
2023-04-19T16:30:31.642Z,1.75
2023-04-19T16:32:58.874Z,1.55
2023-04-19T16:35:26.940Z,1.05
2023-04-19T16:37:56.700Z,0.90
2023-04-19T16:40:24.514Z,1.10
2023-04-19T16:42:51.609Z,0.68
2023-04-19T16:45:18.606Z,1.00
2023-04-19T16:47:46.049Z,1.30
2023-04-19T16:50:14.030Z,1.27
2023-04-19T16:52:41.247Z,1.83
2023-04-19T16:55:08.748Z,1.25
2023-04-19T16:57:36.581Z,1.30
2023-04-19T17:00:05.894Z,1.00
2023-04-19T17:02:33.881Z,0.80
2023-04-19T17:05:01.380Z,0.80
2023-04-19T17:07:28.626Z,0.80
2023-04-19T17:09:55.924Z,0.73
2023-04-19T17:12:22.938Z,1.10
2023-04-19T17:14:50.285Z,0.80
2023-04-19T17:17:19.839Z,0.88
2023-04-19T17:19:47.240Z,0.60
2023-04-19T17:22:15.430Z,0.95
2023-04-19T17:24:42.644Z,0.88
2023-04-19T17:27:09.732Z,0.82
2023-04-19T17:29:37.005Z,1.58
2023-04-19T17:32:06.672Z,1.35
2023-04-19T17:34:36.027Z,1.60
2023-04-19T17:37:03.914Z,1.80
2023-04-19T17:39:30.924Z,1.10
2023-04-19T17:41:58.038Z,0.90
2023-04-19T17:44:25.073Z,1.08
2023-04-19T17:46:52.048Z,0.80
2023-04-19T17:49:21.048Z,0.98
2023-04-19T17:51:48.670Z,0.80
2023-04-19T17:54:16.286Z,0.93
2023-04-19T17:56:43.591Z,0.77
2023-04-19T17:59:10.650Z,1.05
2023-04-19T18:01:37.987Z,0.80
2023-04-19T18:04:05.529Z,0.82
2023-04-19T18:06:32.972Z,0.88
2023-04-19T18:09:00.495Z,0.93
2023-04-19T18:11:28.706Z,1.10
2023-04-19T18:13:56.127Z,1.20
2023-04-19T18:16:23.381Z,0.90
2023-04-19T18:18:50.613Z,1.33
2023-04-19T18:21:18.430Z,1.13
2023-04-19T18:23:45.513Z,1.60
2023-04-19T18:26:12.442Z,1.23
2023-04-19T18:28:39.929Z,1.10
2023-04-19T18:31:08.602Z,1.38
2023-04-19T18:33:36.328Z,1.13
2023-04-19T18:36:04.713Z,1.05
2023-04-19T18:38:31.932Z,1.08
2023-04-19T18:40:59.385Z,1.20
2023-04-19T18:43:28.727Z,1.17
2023-04-19T18:45:56.334Z,1.10
2023-04-19T18:48:28.987Z,1.40
2023-04-19T18:50:59.787Z,1.58
2023-04-19T18:53:29.262Z,1.27
2023-04-19T18:56:00.305Z,1.13
2023-04-19T18:58:28.240Z,1.00
2023-04-19T19:00:55.996Z,1.13
2023-04-19T19:08:21.998Z,1.00
2023-04-19T19:11:13.791Z,1.50
2023-04-19T19:13:36.169Z,1.10
2023-04-19T19:16:05.380Z,1.23
2023-04-19T19:18:32.803Z,1.30
2023-04-19T19:21:00.283Z,1.20
2023-04-19T19:23:35.426Z,1.08
2023-04-19T19:26:04.868Z,1.20
2023-04-19T19:28:31.812Z,1.23
2023-04-19T19:30:58.807Z,1.30
2023-04-19T19:33:28.745Z,1.50
2023-04-19T19:35:55.886Z,1.53
2023-04-19T19:38:22.803Z,1.08
2023-04-19T19:43:19.705Z,1.40
2023-04-19T19:45:46.768Z,1.23
2023-04-19T19:48:13.785Z,1.05
2023-04-19T19:53:10.918Z,1.20
2023-04-19T19:55:38.019Z,1.23
2023-04-19T20:00:44.765Z,1.20
2023-04-19T20:03:13.575Z,1.30
2023-04-19T20:05:40.802Z,1.25
2023-04-19T20:08:13.742Z,1.15
2023-04-19T20:10:42.849Z,1.10
2023-04-19T20:13:11.752Z,1.02
2023-04-19T20:15:40.288Z,0.98
2023-04-19T20:18:08.180Z,1.10
2023-04-19T20:20:36.425Z,0.93
2023-04-19T20:23:03.418Z,1.02
2023-04-19T20:25:32.392Z,1.10
2023-04-19T20:28:00.439Z,1.15
2023-04-19T20:30:28.056Z,1.00
2023-04-19T20:32:55.041Z,1.00
2023-04-19T20:35:23.119Z,0.95
2023-04-19T20:37:50.835Z,1.20
2023-04-19T20:40:18.433Z,1.10
2023-04-19T20:42:45.411Z,1.40
2023-04-19T20:45:15.478Z,1.02
2023-04-19T20:47:43.089Z,1.13
2023-04-19T20:50:10.759Z,1.27
2023-04-19T20:52:38.062Z,1.02
2023-04-19T20:55:05.522Z,1.20
2023-04-19T20:57:32.484Z,1.13
2023-04-19T21:00:00.382Z,1.33
2023-04-19T21:02:27.905Z,1.02
2023-04-19T21:04:54.930Z,1.30
2023-04-19T21:07:21.898Z,1.20
2023-04-19T21:09:48.821Z,1.30
2023-04-19T21:12:15.936Z,1.10
2023-04-19T21:14:45.531Z,1.00
2023-04-19T21:17:13.569Z,1.35
2023-04-19T21:19:40.461Z,1.40
2023-04-19T21:22:07.398Z,1.30
2023-04-19T21:24:34.327Z,1.65
2023-04-19T21:27:01.420Z,1.58
2023-04-19T21:29:28.411Z,1.27
2023-04-19T21:31:56.053Z,1.35
2023-04-19T21:34:23.333Z,1.73
2023-04-19T21:36:50.428Z,1.20
2023-04-19T21:39:17.531Z,1.20
2023-04-19T21:41:44.626Z,1.63
2023-04-19T21:44:11.577Z,1.60
2023-04-19T21:46:38.509Z,1.67
2023-04-19T21:49:05.546Z,1.20
2023-04-19T21:51:32.453Z,1.73
2023-04-19T21:53:59.403Z,1.42
2023-04-19T21:56:26.672Z,1.40
2023-04-19T21:58:53.658Z,1.73
2023-04-19T22:01:20.809Z,1.67
2023-04-19T22:03:48.006Z,1.80
2023-04-19T22:06:16.957Z,1.55
2023-04-19T22:08:43.981Z,1.55
2023-04-19T22:11:11.849Z,1.38
2023-04-19T22:13:38.793Z,1.70
2023-04-19T22:16:06.312Z,1.58
2023-04-19T22:18:35.634Z,1.75
2023-04-19T22:21:02.716Z,1.15
2023-04-19T22:23:29.656Z,1.48
2023-04-19T22:25:56.686Z,1.45
2023-04-19T22:28:23.593Z,1.40
2023-04-19T22:30:51.585Z,1.48
2023-04-19T22:33:19.379Z,1.50
2023-04-19T22:35:46.338Z,1.63
2023-04-19T22:38:13.467Z,1.50
2023-04-19T22:40:40.586Z,1.50
2023-04-19T22:43:07.514Z,1.30
2023-04-19T22:45:34.429Z,1.80
2023-04-19T22:48:01.420Z,1.60
2023-04-19T22:50:28.581Z,1.65
2023-04-19T22:52:55.528Z,1.27
2023-04-19T22:55:22.538Z,1.30
2023-04-19T22:57:49.505Z,1.20
2023-04-19T23:00:17.889Z,1.52
2023-04-19T23:02:44.906Z,1.40
2023-04-19T23:05:11.927Z,1.50
2023-04-19T23:07:41.786Z,2.17
2023-04-19T23:10:10.197Z,1.55
2023-04-19T23:12:38.630Z,1.58
2023-04-19T23:15:07.518Z,1.77
2023-04-19T23:17:34.665Z,1.52
2023-04-19T23:20:01.724Z,1.38
2023-04-19T23:22:28.651Z,1.35
2023-04-19T23:24:55.989Z,1.52
2023-04-19T23:27:22.953Z,1.58
2023-04-19T23:29:49.887Z,1.45
2023-04-19T23:32:18.101Z,1.40
2023-04-19T23:34:45.243Z,1.85
2023-04-19T23:37:13.580Z,1.60
2023-04-19T23:39:40.492Z,1.80
2023-04-19T23:42:07.432Z,1.73
2023-04-19T23:44:34.451Z,1.60
2023-04-19T23:47:02.717Z,1.42
2023-04-19T23:49:30.211Z,1.77
2023-04-19T23:51:57.205Z,1.90
2023-04-19T23:54:26.167Z,1.33
2023-04-19T23:56:53.714Z,1.77
2023-04-19T23:59:20.866Z,1.50
